createdAt,value
2023-03-01T00:01:33.788Z,100935.31
2023-03-01T00:04:01.441Z,100938.78
2023-03-01T00:06:29.155Z,100935.59
2023-03-01T00:08:56.871Z,100928.63
2023-03-01T00:11:29.753Z,100935.41
2023-03-01T00:13:59.840Z,100930.50
2023-03-01T00:16:31.527Z,100931.09
2023-03-01T00:18:59.177Z,100937.97
2023-03-01T00:21:27.723Z,100930.41
2023-03-01T00:23:55.524Z,100937.31
2023-03-01T00:26:24.503Z,100933.09
2023-03-01T00:28:52.707Z,100940.16
2023-03-01T00:31:27.014Z,100945.16
2023-03-01T00:33:58.926Z,100943.25
2023-03-01T00:36:29.627Z,100940.75
2023-03-01T00:38:57.907Z,100941.78
2023-03-01T00:41:27.553Z,100951.28
2023-03-01T00:43:55.635Z,100941.75
2023-03-01T00:46:26.659Z,100941.16
2023-03-01T00:48:54.582Z,100945.25
2023-03-01T00:51:27.747Z,100934.03
2023-03-01T00:54:00.101Z,100927.31
2023-03-01T00:56:28.261Z,100928.13
2023-03-01T00:58:56.411Z,100929.69
2023-03-01T01:01:28.327Z,100919.78
2023-03-01T01:03:58.822Z,100924.00
2023-03-01T01:06:31.921Z,100925.78
2023-03-01T01:09:00.204Z,100924.50
2023-03-01T01:11:29.458Z,100922.28
2023-03-01T01:13:57.845Z,100920.22
2023-03-01T01:16:27.281Z,100913.25
2023-03-01T01:18:54.692Z,100912.31
2023-03-01T01:21:23.980Z,100912.75
2023-03-01T01:23:52.003Z,100906.12
2023-03-01T01:26:28.253Z,100901.13
2023-03-01T01:28:56.418Z,100905.91
2023-03-01T01:31:25.683Z,100902.06
2023-03-01T01:33:54.003Z,100897.47
2023-03-01T01:36:21.970Z,100894.87
2023-03-01T01:38:49.714Z,100885.41
2023-03-01T01:41:17.994Z,100892.38
2023-03-01T01:44:06.980Z,100884.50
2023-03-01T01:46:36.736Z,100885.28
2023-03-01T01:49:07.111Z,100875.94
2023-03-01T01:51:39.538Z,100874.03
2023-03-01T01:54:20.052Z,100879.81
2023-03-01T01:56:56.482Z,100880.09
2023-03-01T01:59:25.606Z,100869.84
2023-03-01T02:01:53.912Z,100870.03
2023-03-01T02:04:22.032Z,100865.25
2023-03-01T02:06:55.286Z,100857.81
2023-03-01T02:09:24.534Z,100859.47
2023-03-01T02:11:53.130Z,100861.03
2023-03-01T02:14:20.617Z,100860.13
2023-03-01T02:16:48.652Z,100861.94
2023-03-01T02:19:55.345Z,100857.53
2023-03-01T02:22:29.257Z,100864.94
2023-03-01T02:25:21.163Z,100865.72
2023-03-01T02:28:01.932Z,100859.09
2023-03-01T02:30:30.468Z,100860.03
2023-03-01T02:33:05.428Z,100848.69
2023-03-01T02:35:36.392Z,100847.06
2023-03-01T02:38:05.116Z,100848.88
2023-03-01T02:40:34.666Z,100852.25
2023-03-01T02:43:05.448Z,100842.56
2023-03-01T02:45:33.121Z,100840.00
2023-03-01T02:48:00.662Z,100854.53
2023-03-01T02:50:31.222Z,100844.59
2023-03-01T02:53:05.839Z,100838.31
2023-03-01T02:55:33.525Z,100840.50
2023-03-01T02:58:03.241Z,100838.13
2023-03-01T03:00:40.584Z,100839.00
2023-03-01T03:03:08.922Z,100836.81
2023-03-01T03:05:36.319Z,100833.00
2023-03-01T03:08:04.188Z,100834.09
2023-03-01T03:10:34.571Z,100835.81
2023-03-01T03:13:09.577Z,100826.16
2023-03-01T03:15:39.367Z,100841.53
2023-03-01T03:18:10.378Z,100827.00
2023-03-01T03:20:40.794Z,100824.44
2023-03-01T03:23:08.280Z,100817.72
2023-03-01T03:25:38.663Z,100818.47
2023-03-01T03:28:10.501Z,100814.84
2023-03-01T03:30:40.711Z,100812.34
2023-03-01T03:33:11.211Z,100813.28
2023-03-01T03:35:43.034Z,100810.88
2023-03-01T03:38:16.660Z,100819.22
2023-03-01T03:40:49.701Z,100811.53
2023-03-01T03:43:19.917Z,100816.44
2023-03-01T03:45:48.870Z,100816.06
2023-03-01T03:48:16.836Z,100820.22
2023-03-01T03:50:50.274Z,100828.59
2023-03-01T03:53:18.023Z,100817.13
2023-03-01T03:55:45.801Z,100820.13
2023-03-01T03:58:13.177Z,100820.25
2023-03-01T04:00:45.278Z,100817.63
2023-03-01T04:03:14.548Z,100819.31
2023-03-01T04:05:42.579Z,100816.66
2023-03-01T04:08:10.449Z,100809.25
2023-03-01T04:10:44.603Z,100812.25
2023-03-01T04:13:14.073Z,100807.78
2023-03-01T04:15:43.948Z,100809.66
2023-03-01T04:18:15.775Z,100810.84
2023-03-01T04:20:44.233Z,100810.03
2023-03-01T04:23:21.564Z,100807.81
2023-03-01T04:25:54.925Z,100812.75
2023-03-01T04:28:27.831Z,100811.38
2023-03-01T04:30:56.790Z,100813.94
2023-03-01T04:33:25.090Z,100819.47
2023-03-01T04:35:52.805Z,100820.44
2023-03-01T04:38:22.109Z,100818.44
2023-03-01T04:40:49.642Z,100815.78
2023-03-01T04:43:17.540Z,100824.06
2023-03-01T04:45:45.290Z,100817.34
2023-03-01T04:48:12.685Z,100824.28
2023-03-01T04:50:40.068Z,100809.28
2023-03-01T04:53:07.728Z,100815.00
2023-03-01T04:55:35.256Z,100813.03
2023-03-01T04:58:02.671Z,100812.59
2023-03-01T05:00:30.409Z,100810.34
2023-03-01T05:03:00.724Z,100803.69
2023-03-01T05:05:39.222Z,100807.50
2023-03-01T05:08:08.824Z,100802.91
2023-03-01T05:10:37.262Z,100816.19
2023-03-01T05:13:05.101Z,100811.03
2023-03-01T05:15:33.536Z,100815.44
2023-03-01T05:18:01.402Z,100816.03
2023-03-01T05:20:30.251Z,100813.00
2023-03-01T05:23:00.037Z,100812.00
2023-03-01T05:25:28.174Z,100811.28
2023-03-01T05:27:55.584Z,100818.72
2023-03-01T05:30:23.575Z,100813.91
2023-03-01T05:32:56.690Z,100814.56
2023-03-01T05:35:24.974Z,100808.34
2023-03-01T05:37:52.671Z,100811.47
2023-03-01T05:40:22.029Z,100802.00
2023-03-01T05:42:53.233Z,100811.62
2023-03-01T05:45:20.821Z,100814.84
2023-03-01T05:47:49.411Z,100810.28
2023-03-01T05:50:26.181Z,100811.44
2023-03-01T05:53:02.024Z,100812.09
2023-03-01T05:55:31.967Z,100815.00
2023-03-01T05:58:00.947Z,100816.28
2023-03-01T06:00:29.952Z,100815.44
2023-03-01T06:02:59.049Z,100821.34
2023-03-01T06:05:27.153Z,100819.87
2023-03-01T06:07:54.810Z,100823.34
2023-03-01T06:10:23.359Z,100827.22
2023-03-01T06:12:50.704Z,100828.31
2023-03-01T06:15:18.515Z,100827.22
2023-03-01T06:17:46.926Z,100829.06
2023-03-01T06:20:18.697Z,100831.66
2023-03-01T06:22:47.555Z,100831.00
2023-03-01T06:25:17.502Z,100835.09
2023-03-01T06:27:45.197Z,100833.31
2023-03-01T06:30:15.680Z,100831.84
2023-03-01T06:32:43.400Z,100837.31
2023-03-01T06:35:12.212Z,100837.31
2023-03-01T06:37:40.514Z,100838.50
2023-03-01T06:40:09.121Z,100837.75
2023-03-01T06:42:36.941Z,100847.47
2023-03-01T06:45:06.313Z,100851.66
2023-03-01T06:47:34.309Z,100852.38
2023-03-01T06:50:02.765Z,100846.56
2023-03-01T06:52:30.602Z,100845.66
2023-03-01T06:54:57.978Z,100842.56
2023-03-01T06:57:25.645Z,100838.13
2023-03-01T06:59:53.404Z,100853.47
2023-03-01T07:02:20.790Z,100844.88
2023-03-01T07:04:50.290Z,100847.34
2023-03-01T07:07:19.001Z,100854.19
2023-03-01T07:09:47.117Z,100857.28
2023-03-01T07:12:14.520Z,100858.19
2023-03-01T07:14:42.610Z,100859.16
2023-03-01T07:17:10.130Z,100852.62
2023-03-01T07:19:37.771Z,100848.28
2023-03-01T07:22:05.445Z,100852.66
2023-03-01T07:24:32.853Z,100845.94
2023-03-01T07:27:00.335Z,100849.97
2023-03-01T07:29:29.687Z,100856.12
2023-03-01T07:31:57.173Z,100853.06
2023-03-01T07:34:24.651Z,100855.22
2023-03-01T07:36:52.314Z,100846.87
2023-03-01T07:39:19.884Z,100851.34
2023-03-01T07:41:47.319Z,100849.00
2023-03-01T07:44:15.918Z,100855.34
2023-03-01T07:46:43.278Z,100850.06
2023-03-01T07:49:11.169Z,100852.12
2023-03-01T07:51:39.119Z,100841.31
2023-03-01T07:54:06.541Z,100841.31
2023-03-01T07:56:34.158Z,100841.41
2023-03-01T07:59:02.027Z,100843.53
2023-03-01T08:01:29.460Z,100846.09
2023-03-01T08:03:57.147Z,100843.44
2023-03-01T08:06:24.504Z,100840.09
2023-03-01T08:08:51.946Z,100836.72
2023-03-01T08:11:19.604Z,100834.41
2023-03-01T08:13:51.380Z,100832.97
2023-03-01T08:16:20.252Z,100837.19
2023-03-01T08:18:47.916Z,100820.88
2023-03-01T08:21:18.405Z,100828.47
2023-03-01T08:23:46.256Z,100829.13
2023-03-01T08:26:19.646Z,100832.91
2023-03-01T08:28:48.242Z,100826.38
2023-03-01T08:31:22.753Z,100825.81
2023-03-01T08:33:56.060Z,100815.75
2023-03-01T08:36:25.048Z,100820.66
2023-03-01T08:38:53.061Z,100823.31
2023-03-01T08:41:20.700Z,100823.59
2023-03-01T08:43:48.111Z,100822.72
2023-03-01T08:46:15.976Z,100823.87
2023-03-01T08:48:44.170Z,100818.34
2023-03-01T08:51:17.193Z,100820.06
2023-03-01T08:53:45.632Z,100816.56
2023-03-01T08:56:13.413Z,100806.22
2023-03-01T08:58:41.015Z,100805.53
2023-03-01T09:01:10.264Z,100795.31
2023-03-01T09:03:38.155Z,100784.19
2023-03-01T09:06:08.349Z,100787.00
2023-03-01T09:08:40.327Z,100790.75
2023-03-01T09:11:09.088Z,100786.50
2023-03-01T09:13:36.997Z,100782.22
2023-03-01T09:16:06.635Z,100782.16
2023-03-01T09:18:34.850Z,100776.16
2023-03-01T09:21:10.951Z,100778.56
2023-03-01T09:23:41.836Z,100773.28
2023-03-01T09:26:11.670Z,100768.34
2023-03-01T09:28:39.445Z,100765.59
2023-03-01T09:31:06.877Z,100763.00
2023-03-01T09:33:34.668Z,100754.50
2023-03-01T09:36:04.498Z,100754.66
2023-03-01T09:38:32.539Z,100759.09
2023-03-01T09:41:01.652Z,100748.69
2023-03-01T09:43:48.357Z,100749.34
2023-03-01T09:46:19.939Z,100740.69
2023-03-01T09:48:54.484Z,100739.81
2023-03-01T09:51:28.501Z,100738.03
2023-03-01T09:53:57.971Z,100726.75
2023-03-01T09:56:35.314Z,100731.19
2023-03-01T09:59:14.878Z,100727.19
2023-03-01T10:01:49.715Z,100721.09
2023-03-01T10:04:42.599Z,100720.38
2023-03-01T10:07:30.461Z,100724.84
2023-03-01T10:09:58.431Z,100722.25
2023-03-01T10:12:29.010Z,100718.81
2023-03-01T10:15:12.994Z,100717.28
2023-03-01T10:17:46.391Z,100719.00
2023-03-01T10:20:14.021Z,100705.78
2023-03-01T10:22:41.746Z,100699.75
2023-03-01T10:25:15.076Z,100698.97
2023-03-01T10:28:01.059Z,100705.06
2023-03-01T10:30:36.001Z,100687.34
2023-03-01T10:33:04.845Z,100693.47
2023-03-01T10:35:34.369Z,100687.47
2023-03-01T10:38:10.219Z,100689.38
2023-03-01T10:40:57.953Z,100685.88
2023-03-01T10:43:27.613Z,100691.22
2023-03-01T10:45:55.485Z,100673.78
2023-03-01T10:48:27.898Z,100674.59
2023-03-01T10:50:58.498Z,100675.66
2023-03-01T10:53:39.204Z,100668.66
2023-03-01T10:56:12.998Z,100663.41
2023-03-01T10:58:58.324Z,100662.50
2023-03-01T11:01:36.359Z,100662.59
2023-03-01T11:04:12.545Z,100653.09
2023-03-01T11:06:44.356Z,100657.50
2023-03-01T11:09:19.038Z,100657.56
2023-03-01T11:11:47.418Z,100661.72
2023-03-01T11:14:26.791Z,100646.09
2023-03-01T11:17:22.730Z,100646.09
2023-03-01T11:20:11.208Z,100647.09
2023-03-01T11:22:46.768Z,100643.72
2023-03-01T11:25:15.576Z,100635.00
2023-03-01T11:27:46.642Z,100640.19
2023-03-01T11:30:18.386Z,100639.34
2023-03-01T11:33:07.024Z,100637.69
2023-03-01T11:35:38.612Z,100634.09
2023-03-01T11:38:16.852Z,100639.38
2023-03-01T11:40:47.284Z,100634.13
2023-03-01T11:43:38.194Z,100635.91
2023-03-01T11:46:24.392Z,100632.38
2023-03-01T11:49:11.400Z,100627.19
2023-03-01T11:52:00.787Z,100622.84
2023-03-01T11:54:37.224Z,100623.72
2023-03-01T11:57:34.211Z,100618.50
2023-03-01T12:00:22.439Z,100621.94
2023-03-01T12:03:18.915Z,100621.03
2023-03-01T12:05:52.135Z,100613.28
2023-03-01T12:08:31.912Z,100612.41
2023-03-01T12:11:24.020Z,100608.06
2023-03-01T12:14:03.546Z,100599.34
2023-03-01T12:16:51.642Z,100592.34
2023-03-01T12:19:22.013Z,100581.88
2023-03-01T12:22:10.924Z,100577.56
2023-03-01T12:24:50.442Z,100571.47
2023-03-01T12:27:25.142Z,100564.47
2023-03-01T12:30:27.053Z,100568.84
2023-03-01T12:33:07.512Z,100567.13
2023-03-01T12:35:55.894Z,100569.72
2023-03-01T12:38:29.542Z,100557.53
2023-03-01T12:41:21.496Z,100563.56
2023-03-01T12:43:55.736Z,100567.94
2023-03-01T12:46:48.500Z,100553.13
2023-03-01T12:49:20.194Z,100553.94
2023-03-01T12:52:01.590Z,100556.59
2023-03-01T12:54:34.556Z,100556.59
2023-03-01T12:57:24.245Z,100560.91
2023-03-01T13:00:11.078Z,100548.66
2023-03-01T13:02:48.281Z,100546.88
2023-03-01T13:05:22.041Z,100551.28
2023-03-01T13:08:24.830Z,100549.50
2023-03-01T13:11:03.194Z,100550.38
2023-03-01T13:13:31.176Z,100539.81
2023-03-01T13:15:59.015Z,100526.72
2023-03-01T13:18:28.268Z,100528.53
2023-03-01T13:21:00.452Z,100520.66
2023-03-01T13:23:31.753Z,100525.00
2023-03-01T13:26:05.437Z,100518.94
2023-03-01T13:28:42.852Z,100527.75
2023-03-01T13:31:12.448Z,100527.72
2023-03-01T13:33:47.494Z,100508.47
2023-03-01T13:36:37.007Z,100511.06
2023-03-01T13:39:06.438Z,100511.22
2023-03-01T13:41:40.065Z,100503.31
2023-03-01T13:44:37.188Z,100502.47
2023-03-01T13:47:07.733Z,100497.28
2023-03-01T13:49:47.859Z,100492.94
2023-03-01T13:52:31.553Z,100495.56
2023-03-01T13:54:59.521Z,100496.44
2023-03-01T13:57:31.521Z,100487.66
2023-03-01T13:59:59.204Z,100486.84
2023-03-01T14:02:26.695Z,100484.16
2023-03-01T14:05:01.379Z,100480.78
2023-03-01T14:07:32.138Z,100484.28
2023-03-01T14:10:03.212Z,100483.38
2023-03-01T14:12:30.573Z,100473.81
2023-03-01T14:15:06.148Z,100469.38
2023-03-01T14:18:05.133Z,100465.13
2023-03-01T14:20:41.386Z,100460.81
2023-03-01T14:23:30.518Z,100459.09
2023-03-01T14:25:58.766Z,100448.62
2023-03-01T14:28:34.361Z,100453.78
2023-03-01T14:31:02.690Z,100444.22
2023-03-01T14:33:37.054Z,100448.59
2023-03-01T14:36:04.646Z,100437.28
2023-03-01T14:38:37.697Z,100429.38
2023-03-01T14:41:09.099Z,100431.06
2023-03-01T14:43:38.827Z,100422.41
2023-03-01T14:46:06.267Z,100418.94
2023-03-01T14:48:33.725Z,100423.22
2023-03-01T14:51:01.684Z,100428.56
2023-03-01T14:53:34.134Z,100427.69
2023-03-01T14:56:05.528Z,100414.53
2023-03-01T14:58:34.350Z,100414.59
2023-03-01T15:01:04.237Z,100425.94
2023-03-01T15:03:38.088Z,100421.62
2023-03-01T15:06:07.089Z,100412.88
2023-03-01T15:08:35.316Z,100405.84
2023-03-01T15:11:07.309Z,100413.72
2023-03-01T15:13:36.753Z,100406.66
2023-03-01T15:16:14.036Z,100415.44
2023-03-01T15:18:54.418Z,100412.84
2023-03-01T15:21:26.409Z,100413.59
2023-03-01T15:23:57.226Z,100409.34
2023-03-01T15:26:28.084Z,100416.31
2023-03-01T15:28:59.138Z,100416.31
2023-03-01T15:31:27.748Z,100420.69
2023-03-01T15:34:20.380Z,100418.06
2023-03-01T15:36:51.302Z,100418.06
2023-03-01T15:39:47.760Z,100415.44
2023-03-01T15:42:44.783Z,100407.56
2023-03-01T15:45:22.459Z,100409.25
2023-03-01T15:47:58.726Z,100411.91
2023-03-01T15:50:33.886Z,100410.16
2023-03-01T15:53:11.977Z,100411.09
2023-03-01T15:55:39.362Z,100402.38
2023-03-01T15:58:11.669Z,100409.34
2023-03-01T16:00:46.280Z,100416.34
2023-03-01T16:03:26.073Z,100408.53
2023-03-01T16:05:53.441Z,100411.13
2023-03-01T16:08:20.906Z,100420.72
2023-03-01T16:10:50.936Z,100423.28
2023-03-01T16:13:18.619Z,100424.13
2023-03-01T16:15:46.046Z,100430.25
2023-03-01T16:18:13.706Z,100427.66
2023-03-01T16:20:41.218Z,100424.19
2023-03-01T16:23:09.430Z,100431.22
2023-03-01T16:25:37.291Z,100435.59
2023-03-01T16:28:09.900Z,100438.19
2023-03-01T16:30:40.337Z,100433.84
2023-03-01T16:33:24.382Z,100432.12
2023-03-01T16:35:55.570Z,100434.72
2023-03-01T16:38:22.975Z,100440.84
2023-03-01T16:40:51.934Z,100445.19
2023-03-01T16:43:19.680Z,100445.19
2023-03-01T16:45:47.430Z,100445.16
2023-03-01T16:48:15.376Z,100454.72
2023-03-01T16:50:43.169Z,100452.97
2023-03-01T16:53:10.668Z,100446.87
2023-03-01T16:55:38.914Z,100454.66
2023-03-01T16:58:06.691Z,100457.19
2023-03-01T17:00:34.111Z,100458.06
2023-03-01T17:03:01.789Z,100465.03
2023-03-01T17:05:29.519Z,100464.03
2023-03-01T17:07:58.025Z,100469.25
2023-03-01T17:10:25.563Z,100461.38
2023-03-01T17:12:53.284Z,100465.72
2023-03-01T17:15:20.702Z,100462.09
2023-03-01T17:17:51.737Z,100464.78
2023-03-01T17:20:20.080Z,100460.31
2023-03-01T17:22:47.447Z,100462.84
2023-03-01T17:25:15.811Z,100454.16
2023-03-01T17:27:43.617Z,100454.91
2023-03-01T17:30:13.101Z,100462.69
2023-03-01T17:32:41.034Z,100458.41
2023-03-01T17:35:11.599Z,100458.28
2023-03-01T17:37:39.803Z,100465.97
2023-03-01T17:40:07.734Z,100474.59
2023-03-01T17:42:35.377Z,100465.03
2023-03-01T17:45:02.896Z,100465.84
2023-03-01T17:47:30.393Z,100471.81
2023-03-01T17:49:58.056Z,100470.09
2023-03-01T17:52:25.403Z,100467.31
2023-03-01T17:54:52.799Z,100464.75
2023-03-01T17:57:20.472Z,100466.38
2023-03-01T17:59:47.863Z,100457.69
2023-03-01T18:02:15.259Z,100458.53
2023-03-01T18:04:42.961Z,100461.78
2023-03-01T18:07:10.324Z,100456.53
2023-03-01T18:09:37.879Z,100454.72
2023-03-01T18:12:05.913Z,100458.22
2023-03-01T18:14:34.149Z,100457.28
2023-03-01T18:17:06.577Z,100455.53
2023-03-01T18:19:34.317Z,100461.50
2023-03-01T18:22:01.735Z,100451.06
2023-03-01T18:24:29.165Z,100453.59
2023-03-01T18:26:56.847Z,100454.34
2023-03-01T18:29:24.247Z,100463.91
2023-03-01T18:31:51.614Z,100449.12
2023-03-01T18:34:19.226Z,100452.50
2023-03-01T18:37:00.453Z,100461.00
2023-03-01T18:39:34.071Z,100462.50
2023-03-01T18:42:01.488Z,100458.25
2023-03-01T18:44:28.870Z,100458.97
2023-03-01T18:46:58.271Z,100462.38
2023-03-01T18:49:26.354Z,100464.09
2023-03-01T18:51:54.022Z,100460.72
2023-03-01T18:54:21.683Z,100456.06
2023-03-01T18:56:49.124Z,100451.75
2023-03-01T18:59:16.587Z,100463.97
2023-03-01T19:01:44.313Z,100456.09
2023-03-01T19:04:11.817Z,100449.63
2023-03-01T19:06:39.397Z,100454.06
2023-03-01T19:09:08.269Z,100455.50
2023-03-01T19:11:35.951Z,100451.13
2023-03-01T19:14:04.056Z,100449.97
2023-03-01T19:16:33.483Z,100456.31
2023-03-01T19:19:02.340Z,100456.41
2023-03-01T19:21:31.555Z,100457.97
2023-03-01T19:24:02.298Z,100458.72
2023-03-01T19:26:31.001Z,100450.03
2023-03-01T19:28:59.373Z,100456.09
2023-03-01T19:31:28.712Z,100456.72
2023-03-01T19:34:10.002Z,100459.31
2023-03-01T19:36:41.732Z,100462.94
2023-03-01T19:39:09.954Z,100462.84
2023-03-01T19:41:37.633Z,100468.88
2023-03-01T19:44:05.988Z,100470.63
2023-03-01T19:46:34.162Z,100477.37
2023-03-01T19:49:03.494Z,100473.97
2023-03-01T19:51:36.502Z,100471.97
2023-03-01T19:54:05.857Z,100478.66
2023-03-01T19:56:34.202Z,100490.03
2023-03-01T19:59:04.262Z,100486.44
2023-03-01T20:01:34.315Z,100494.75
2023-03-01T20:04:03.100Z,100496.53
2023-03-01T20:06:31.065Z,100499.75
2023-03-01T20:09:00.648Z,100489.56
2023-03-01T20:11:29.995Z,100492.78
2023-03-01T20:13:57.760Z,100500.41
2023-03-01T20:16:26.785Z,100500.56
2023-03-01T20:18:54.563Z,100502.25
2023-03-01T20:21:24.431Z,100501.22
2023-03-01T20:23:52.474Z,100499.44
2023-03-01T20:26:21.367Z,100496.84
2023-03-01T20:28:50.759Z,100503.50
2023-03-01T20:31:19.808Z,100503.78
2023-03-01T20:33:48.370Z,100503.81
2023-03-01T20:36:16.110Z,100505.41
2023-03-01T20:38:43.521Z,100509.44
2023-03-01T20:41:12.850Z,100507.63
2023-03-01T20:43:43.462Z,100512.78
2023-03-01T20:46:13.301Z,100516.88
2023-03-01T20:48:44.950Z,100512.63
2023-03-01T20:51:13.507Z,100510.84
2023-03-01T20:53:41.215Z,100509.78
2023-03-01T20:56:11.321Z,100513.25
2023-03-01T20:58:39.330Z,100512.06
2023-03-01T21:01:07.779Z,100513.00
2023-03-01T21:03:35.884Z,100520.78
2023-03-01T21:06:06.173Z,100515.34
2023-03-01T21:08:35.220Z,100514.50
2023-03-01T21:11:05.712Z,100513.47
2023-03-01T21:13:34.677Z,100524.16
2023-03-01T21:16:07.944Z,100519.31
2023-03-01T21:18:36.966Z,100517.41
2023-03-01T21:21:13.209Z,100516.59
2023-03-01T21:23:41.817Z,100528.34
2023-03-01T21:26:23.642Z,100526.78
2023-03-01T21:28:55.058Z,100516.81
2023-03-01T21:31:25.175Z,100514.84
2023-03-01T21:33:55.189Z,100519.47
2023-03-01T21:36:24.453Z,100520.34
2023-03-01T21:38:52.656Z,100519.28
2023-03-01T21:41:25.560Z,100524.16
2023-03-01T21:43:54.458Z,100520.66
2023-03-01T21:46:23.671Z,100531.13
2023-03-01T21:48:52.436Z,100535.13
2023-03-01T21:51:21.254Z,100530.50
2023-03-01T21:53:50.526Z,100529.03
2023-03-01T21:56:23.981Z,100527.91
2023-03-01T21:58:51.884Z,100522.13
2023-03-01T22:01:24.548Z,100513.41
2023-03-01T22:03:52.431Z,100509.72
2023-03-01T22:06:34.329Z,100519.66
2023-03-01T22:09:05.985Z,100516.22
2023-03-01T22:11:37.058Z,100521.75
2023-03-01T22:14:05.435Z,100521.03
2023-03-01T22:16:35.643Z,100514.53
2023-03-01T22:19:04.901Z,100524.87
2023-03-01T22:21:33.209Z,100518.94
2023-03-01T22:24:01.518Z,100515.31
2023-03-01T22:26:30.761Z,100517.72
2023-03-01T22:29:01.226Z,100518.37
2023-03-01T22:31:29.027Z,100523.53
2023-03-01T22:33:56.994Z,100526.03
2023-03-01T22:36:24.656Z,100520.91
2023-03-01T22:39:00.089Z,100527.59
2023-03-01T22:41:43.063Z,100525.69
2023-03-01T22:44:15.046Z,100520.38
2023-03-01T22:46:43.555Z,100522.94
2023-03-01T22:49:10.995Z,100526.28
2023-03-01T22:51:40.861Z,100524.53
2023-03-01T22:54:09.688Z,100526.00
2023-03-01T22:56:37.953Z,100528.87
2023-03-01T22:59:11.303Z,100524.25
2023-03-01T23:01:41.000Z,100524.44
2023-03-01T23:04:08.422Z,100525.31
2023-03-01T23:06:50.043Z,100517.97
2023-03-01T23:09:20.649Z,100517.97
2023-03-01T23:11:48.331Z,100512.44
2023-03-01T23:14:16.166Z,100514.87
2023-03-01T23:16:44.207Z,100514.69
2023-03-01T23:19:11.778Z,100519.53
2023-03-01T23:21:44.217Z,100518.13
2023-03-01T23:24:13.607Z,100523.69
2023-03-01T23:26:41.771Z,100519.31
2023-03-01T23:29:09.245Z,100520.06
2023-03-01T23:31:36.921Z,100526.09
2023-03-01T23:34:04.476Z,100527.75
2023-03-01T23:36:34.025Z,100525.13
2023-03-01T23:39:06.207Z,100530.25
2023-03-01T23:41:35.664Z,100525.19
2023-03-01T23:44:04.200Z,100523.25
2023-03-01T23:46:35.002Z,100525.13
2023-03-01T23:49:03.491Z,100519.53
2023-03-01T23:51:30.892Z,100516.69
2023-03-01T23:54:01.589Z,100518.41
2023-03-01T23:56:32.227Z,100514.38
2023-03-01T23:59:01.755Z,100496.97
